LTBA/IST METAR and TAF weather

Enter ICAO airport designator
Station Type Date Time Source
LTBA METAR 2022/06/28 08:20 UTC NOAA

LTBA 280820Z 03014KT 9999 SCT032 26/17 Q1013 NOSIG


Station Type Date Time Source
LTBA Decoded METAR 2022/06/28 08:20 UTC NOAA

Istanbul / Ataturk, Turkey (LTBA) 40-58N 028-49E 37M
Jun 28, 2022 - 04:20 AM EDT / 2022.06.28 0820 UTC
Wind: from the NNE (030 degrees) at 16 MPH (14 KT):0
Visibility: greater than 7 mile(s):0
Sky conditions: partly cloudy
Temperature: 78 F (26 C)
Dew Point: 62 F (17 C)
Relative Humidity: 57%
Pressure (altimeter): 29.91 in. Hg (1013 hPa)
ob: LTBA 280820Z 03014KT 9999 SCT032 26/17 Q1013 NOSIG
cycle: 8

Station Type Date Time Source
LTBA TAF 2022/06/28 06:03 UTC NOAA

TAF LTBA 280440Z 2806/2912 02012KT 9999 -SHRA SCT010 BKN025 BKN070
BECMG 2809/2812 SCT035
TEMPO 2813/2817 03015G25KT

Example: see airport list